createdAt,value
2023-01-19T00:00:08.371Z,6.57
2023-01-19T00:01:33.312Z,7.20
2023-01-19T00:02:56.848Z,5.57
2023-01-19T00:04:20.586Z,6.87
2023-01-19T00:05:44.613Z,5.90
2023-01-19T00:07:08.393Z,6.33
2023-01-19T00:08:30.875Z,6.53
2023-01-19T00:09:54.435Z,5.73
2023-01-19T00:11:18.621Z,6.63
2023-01-19T00:12:42.092Z,5.17
2023-01-19T00:14:08.580Z,5.80
2023-01-19T00:15:33.124Z,6.27
2023-01-19T00:17:02.823Z,6.63
2023-01-19T00:18:25.852Z,6.23
2023-01-19T00:19:49.249Z,6.23
2023-01-19T00:21:11.880Z,5.80
2023-01-19T00:22:35.260Z,6.50
2023-01-19T00:23:58.815Z,7.53
2023-01-19T00:25:21.331Z,6.60
2023-01-19T00:26:45.345Z,6.23
2023-01-19T00:28:07.934Z,6.37
2023-01-19T00:29:34.280Z,6.73
2023-01-19T00:30:56.815Z,5.77
2023-01-19T00:32:21.752Z,6.60
2023-01-19T00:33:48.837Z,6.40
2023-01-19T00:35:11.500Z,7.27
2023-01-19T00:36:35.183Z,7.37
2023-01-19T00:37:58.963Z,6.20
2023-01-19T00:39:21.391Z,6.20
2023-01-19T00:40:45.032Z,7.00
2023-01-19T00:42:27.159Z,6.23
2023-01-19T00:43:50.807Z,5.87
2023-01-19T00:45:14.670Z,6.00
2023-01-19T00:46:38.200Z,6.20
2023-01-19T00:48:03.267Z,7.53
2023-01-19T00:49:25.717Z,6.83
2023-01-19T00:50:50.069Z,6.80
2023-01-19T00:52:12.543Z,6.40
2023-01-19T00:53:36.045Z,6.83
2023-01-19T00:54:59.565Z,6.80
2023-01-19T00:56:23.067Z,6.03
2023-01-19T00:57:46.512Z,6.53
2023-01-19T00:59:11.468Z,6.97
2023-01-19T01:00:34.938Z,6.73
2023-01-19T01:01:57.617Z,6.50
2023-01-19T01:03:28.148Z,7.00
2023-01-19T01:04:54.983Z,6.13
2023-01-19T01:06:18.636Z,6.67
2023-01-19T01:07:41.365Z,6.93
2023-01-19T01:09:11.765Z,6.53
2023-01-19T01:10:35.356Z,6.30
2023-01-19T01:11:59.178Z,6.27
2023-01-19T01:13:26.203Z,6.80
2023-01-19T01:14:50.793Z,6.43
2023-01-19T01:16:16.675Z,5.43
2023-01-19T01:17:46.603Z,6.30
2023-01-19T01:19:11.580Z,6.27
2023-01-19T01:20:34.789Z,5.80
2023-01-19T01:21:58.312Z,6.50
2023-01-19T01:23:23.029Z,6.47
2023-01-19T01:24:46.745Z,6.13
2023-01-19T01:26:10.152Z,6.40
2023-01-19T01:27:32.596Z,7.30
2023-01-19T01:28:56.436Z,6.67
2023-01-19T01:30:20.471Z,6.27
2023-01-19T01:31:44.014Z,7.00
2023-01-19T01:33:07.501Z,7.03
2023-01-19T01:34:31.435Z,7.60
2023-01-19T01:35:54.928Z,5.63
2023-01-19T01:37:18.376Z,6.27
2023-01-19T01:38:40.950Z,6.50
2023-01-19T01:40:04.752Z,6.27
2023-01-19T01:41:28.386Z,6.57
2023-01-19T01:42:51.915Z,5.20
2023-01-19T01:44:49.923Z,5.40
2023-01-19T01:46:15.452Z,6.63
2023-01-19T01:47:42.614Z,6.07
2023-01-19T01:49:07.557Z,6.00
2023-01-19T01:50:35.413Z,5.90
2023-01-19T01:51:58.059Z,4.90
2023-01-19T01:53:21.510Z,6.20
2023-01-19T01:54:44.239Z,6.27
2023-01-19T01:56:10.501Z,5.93
2023-01-19T01:57:34.272Z,5.27
2023-01-19T01:58:58.149Z,6.23
2023-01-19T02:00:21.734Z,6.67
2023-01-19T02:02:05.817Z,6.50
2023-01-19T02:03:29.342Z,5.53
2023-01-19T02:04:55.306Z,5.67
2023-01-19T02:06:20.035Z,4.97
2023-01-19T02:08:06.876Z,6.27
2023-01-19T02:09:49.017Z,6.13
2023-01-19T02:11:30.249Z,6.20
2023-01-19T02:13:12.047Z,4.77
2023-01-19T02:14:37.845Z,5.33
2023-01-19T02:16:03.987Z,5.23
2023-01-19T02:17:26.530Z,5.03
2023-01-19T02:18:50.137Z,6.33
2023-01-19T02:20:13.085Z,5.83
2023-01-19T02:21:46.304Z,5.37
2023-01-19T02:23:15.727Z,5.70
2023-01-19T02:24:40.632Z,6.00
2023-01-19T02:26:04.461Z,5.13
2023-01-19T02:27:28.000Z,5.97
2023-01-19T02:28:53.525Z,6.37
2023-01-19T02:30:17.967Z,6.83
2023-01-19T02:31:42.062Z,7.33
2023-01-19T02:33:05.214Z,6.63
2023-01-19T02:34:28.837Z,5.37
2023-01-19T02:35:53.266Z,6.23
2023-01-19T02:37:18.532Z,5.90
2023-01-19T02:38:43.040Z,5.43
2023-01-19T02:40:11.804Z,5.73
2023-01-19T02:41:43.606Z,4.73
2023-01-19T02:43:08.763Z,5.70
2023-01-19T02:44:32.661Z,6.10
2023-01-19T02:45:56.236Z,5.70
2023-01-19T02:47:20.015Z,5.20
2023-01-19T02:48:42.639Z,6.47
2023-01-19T02:50:07.007Z,6.17
2023-01-19T02:51:30.637Z,6.17
2023-01-19T02:52:55.163Z,5.77
2023-01-19T02:54:32.574Z,3.97
2023-01-19T02:55:59.707Z,6.17
2023-01-19T02:57:32.603Z,5.63
2023-01-19T02:58:59.537Z,6.20
2023-01-19T03:00:29.560Z,6.47
2023-01-19T03:02:09.107Z,6.00
2023-01-19T03:03:33.932Z,6.50
2023-01-19T03:05:08.245Z,6.13
2023-01-19T03:06:38.692Z,6.37
2023-01-19T03:08:09.631Z,6.23
2023-01-19T03:09:38.075Z,7.00
2023-01-19T03:11:04.098Z,6.27
2023-01-19T03:12:35.620Z,7.07
2023-01-19T03:14:02.889Z,6.60
2023-01-19T03:15:29.584Z,6.70
2023-01-19T03:16:55.639Z,6.90
2023-01-19T03:18:22.567Z,6.20
2023-01-19T03:19:47.714Z,6.97
2023-01-19T03:21:12.282Z,6.70
2023-01-19T03:22:36.333Z,7.23
2023-01-19T03:24:04.018Z,6.23
2023-01-19T03:25:26.721Z,6.40
2023-01-19T03:26:58.822Z,6.73
2023-01-19T03:28:22.878Z,7.67
2023-01-19T03:29:51.944Z,7.00
2023-01-19T03:31:17.836Z,6.83
2023-01-19T03:32:43.943Z,6.97
2023-01-19T03:34:08.458Z,8.43
2023-01-19T03:35:34.578Z,6.17
2023-01-19T03:37:02.170Z,7.53
2023-01-19T03:38:26.963Z,6.57
2023-01-19T03:39:50.551Z,7.40
2023-01-19T03:41:16.672Z,6.43
2023-01-19T03:42:42.818Z,7.30
2023-01-19T03:44:07.055Z,7.50
2023-01-19T03:45:30.845Z,7.47
2023-01-19T03:46:54.326Z,7.77
2023-01-19T03:48:17.221Z,6.57
2023-01-19T03:49:41.545Z,6.80
2023-01-19T03:51:05.980Z,4.70
2023-01-19T03:52:32.500Z,7.67
2023-01-19T03:53:55.106Z,6.60
2023-01-19T03:55:28.412Z,6.73
2023-01-19T03:56:52.927Z,6.50
2023-01-19T03:58:17.788Z,6.37
2023-01-19T03:59:40.282Z,7.00
2023-01-19T04:01:04.327Z,7.30
2023-01-19T04:02:27.845Z,6.90
2023-01-19T04:03:50.601Z,7.77
2023-01-19T04:05:14.474Z,6.90
2023-01-19T04:06:38.084Z,5.67
2023-01-19T04:08:00.687Z,7.97
2023-01-19T04:09:24.824Z,6.27
2023-01-19T04:10:48.295Z,6.23
2023-01-19T04:12:14.718Z,6.57
2023-01-19T04:13:38.575Z,7.83
2023-01-19T04:15:02.028Z,6.90
2023-01-19T04:16:25.638Z,7.03
2023-01-19T04:17:48.204Z,4.70
2023-01-19T04:19:11.733Z,6.23
2023-01-19T04:20:34.198Z,7.07
2023-01-19T04:22:00.588Z,5.73
2023-01-19T04:23:23.145Z,5.93
2023-01-19T04:24:46.831Z,7.83
2023-01-19T04:26:10.681Z,7.23
2023-01-19T04:31:17.370Z,5.63
2023-01-19T04:32:44.628Z,5.73
2023-01-19T04:34:07.108Z,6.50
2023-01-19T04:35:30.687Z,7.03
2023-01-19T04:36:56.693Z,4.33
2023-01-19T04:38:19.892Z,6.77
2023-01-19T04:39:43.305Z,5.47
2023-01-19T04:41:05.942Z,6.80
2023-01-19T04:42:32.797Z,6.70
2023-01-19T04:43:56.265Z,7.27
2023-01-19T04:45:19.817Z,5.43
2023-01-19T04:46:43.333Z,6.97
2023-01-19T04:48:09.284Z,6.33
2023-01-19T04:49:32.745Z,2.87
2023-01-19T04:50:56.163Z,6.77
2023-01-19T04:52:19.616Z,6.43
2023-01-19T04:53:44.122Z,7.07
2023-01-19T04:55:08.759Z,6.43
2023-01-19T04:56:32.221Z,6.93
2023-01-19T04:57:55.992Z,6.60
2023-01-19T04:59:20.470Z,6.03
2023-01-19T05:00:44.366Z,6.40
2023-01-19T05:02:06.904Z,6.20
2023-01-19T05:03:31.768Z,6.17
2023-01-19T05:04:54.343Z,6.17
2023-01-19T05:06:17.924Z,6.13
2023-01-19T05:07:40.629Z,6.67
2023-01-19T05:09:04.366Z,5.60
2023-01-19T05:10:27.820Z,7.33
2023-01-19T05:11:51.205Z,5.93
2023-01-19T05:13:14.168Z,5.30
2023-01-19T05:14:37.900Z,5.80
2023-01-19T05:16:02.143Z,6.50
2023-01-19T05:17:24.719Z,7.33
2023-01-19T05:18:49.672Z,6.23
2023-01-19T05:20:16.245Z,7.77
2023-01-19T05:21:40.301Z,7.60
2023-01-19T05:23:04.099Z,7.77
2023-01-19T05:24:27.654Z,5.67
2023-01-19T05:25:51.248Z,6.13
2023-01-19T05:27:14.828Z,6.17
2023-01-19T05:28:38.012Z,6.60
2023-01-19T05:30:01.492Z,5.10
2023-01-19T05:31:25.033Z,3.70
2023-01-19T05:32:47.569Z,5.27
2023-01-19T05:34:14.470Z,6.03
2023-01-19T05:35:38.039Z,6.77
2023-01-19T05:37:00.491Z,6.37
2023-01-19T05:38:34.666Z,6.07
2023-01-19T05:39:58.771Z,6.43
2023-01-19T05:41:22.264Z,5.90
2023-01-19T05:42:46.019Z,6.10
2023-01-19T05:44:10.272Z,6.63
2023-01-19T05:45:34.178Z,5.53
2023-01-19T05:46:57.723Z,6.80
2023-01-19T05:48:21.265Z,6.27
2023-01-19T05:49:46.055Z,6.43
2023-01-19T05:51:09.539Z,5.47
2023-01-19T05:52:33.325Z,6.87
2023-01-19T05:53:55.895Z,5.73
2023-01-19T05:55:19.443Z,6.13
2023-01-19T05:56:42.271Z,6.40
2023-01-19T05:58:05.897Z,6.50
2023-01-19T05:59:29.451Z,6.37
2023-01-19T06:00:53.016Z,6.70
2023-01-19T06:02:16.539Z,7.77
2023-01-19T06:03:40.955Z,6.33
2023-01-19T06:05:06.459Z,6.40
2023-01-19T06:06:29.977Z,5.87
2023-01-19T06:07:53.404Z,4.73
2023-01-19T06:09:17.363Z,7.13
2023-01-19T06:10:39.886Z,6.53
2023-01-19T06:12:03.613Z,6.00
2023-01-19T06:13:26.125Z,5.73
2023-01-19T06:14:49.588Z,6.53
2023-01-19T06:16:13.063Z,6.20
2023-01-19T06:17:36.935Z,6.23
2023-01-19T06:19:00.451Z,6.77
2023-01-19T06:20:25.378Z,5.70
2023-01-19T06:21:52.254Z,6.30
2023-01-19T06:23:15.876Z,6.57
2023-01-19T06:24:39.569Z,6.70
2023-01-19T06:26:03.919Z,5.50
2023-01-19T06:27:27.512Z,6.20
2023-01-19T06:28:52.740Z,5.80
2023-01-19T06:30:15.685Z,6.40
2023-01-19T06:31:39.268Z,6.70
2023-01-19T06:33:03.193Z,6.10
2023-01-19T06:34:28.783Z,5.30
2023-01-19T06:35:53.667Z,6.07
2023-01-19T06:37:17.306Z,5.87
2023-01-19T06:38:43.920Z,6.30
2023-01-19T06:40:08.921Z,6.53
2023-01-19T06:41:32.502Z,6.57
2023-01-19T06:42:56.053Z,6.90
2023-01-19T06:44:19.459Z,7.00
2023-01-19T06:45:45.192Z,6.17
2023-01-19T06:47:15.707Z,5.60
2023-01-19T06:48:39.496Z,5.00
2023-01-19T06:50:03.480Z,7.03
2023-01-19T06:51:28.418Z,4.87
2023-01-19T06:52:50.963Z,5.17
2023-01-19T06:54:14.546Z,5.33
2023-01-19T06:55:39.230Z,6.10
2023-01-19T06:57:03.460Z,5.87
2023-01-19T06:58:26.964Z,5.57
2023-01-19T06:59:50.446Z,6.27
2023-01-19T07:01:14.246Z,5.07
2023-01-19T07:02:38.854Z,6.73
2023-01-19T07:04:02.413Z,6.77
2023-01-19T07:05:26.131Z,6.23
2023-01-19T07:06:53.895Z,6.30
2023-01-19T07:08:17.501Z,5.97
2023-01-19T07:09:40.959Z,6.30
2023-01-19T07:11:23.173Z,5.10
2023-01-19T07:12:49.829Z,5.67
2023-01-19T07:14:13.776Z,6.20
2023-01-19T07:15:37.620Z,6.63
2023-01-19T07:17:02.143Z,5.90
2023-01-19T07:18:25.584Z,6.73
2023-01-19T07:19:49.057Z,6.03
2023-01-19T07:21:12.645Z,6.30
2023-01-19T07:22:36.605Z,5.87
2023-01-19T07:24:00.336Z,5.63
2023-01-19T07:25:23.862Z,5.13
2023-01-19T07:26:49.072Z,5.83
2023-01-19T07:28:15.484Z,4.97
2023-01-19T07:29:38.075Z,6.07
2023-01-19T07:31:01.745Z,7.37
2023-01-19T07:32:25.439Z,5.33
2023-01-19T07:33:49.622Z,6.10
2023-01-19T07:35:13.063Z,4.80
2023-01-19T07:36:37.225Z,6.73
2023-01-19T07:38:02.026Z,6.87
2023-01-19T07:39:25.471Z,6.57
2023-01-19T07:40:49.069Z,6.90
2023-01-19T07:42:12.549Z,5.73
2023-01-19T07:43:36.278Z,5.80
2023-01-19T07:45:00.982Z,7.00
2023-01-19T07:46:24.626Z,6.63
2023-01-19T07:47:52.281Z,6.60
2023-01-19T07:49:15.770Z,5.95
2023-01-19T07:50:39.317Z,5.28
2023-01-19T07:52:02.769Z,6.13
2023-01-19T07:53:27.768Z,6.05
2023-01-19T07:54:51.667Z,6.25
2023-01-19T07:56:15.188Z,6.18
2023-01-19T07:57:37.660Z,5.18
2023-01-19T07:59:01.086Z,5.40
2023-01-19T08:00:25.271Z,5.47
2023-01-19T08:01:48.924Z,5.35
2023-01-19T08:03:12.640Z,5.90
2023-01-19T08:04:36.129Z,5.72
2023-01-19T08:06:00.190Z,5.15
2023-01-19T08:07:23.647Z,5.30
2023-01-19T08:08:48.481Z,5.10
2023-01-19T08:10:12.715Z,5.80
2023-01-19T08:11:36.733Z,5.35
2023-01-19T08:13:00.544Z,5.15
2023-01-19T08:14:24.158Z,4.60
2023-01-19T08:15:51.266Z,5.07
2023-01-19T08:17:15.337Z,5.75
2023-01-19T08:18:39.168Z,4.82
2023-01-19T08:20:03.198Z,5.18
2023-01-19T08:21:27.076Z,4.80
2023-01-19T08:22:50.608Z,5.15
2023-01-19T08:24:21.435Z,5.15
2023-01-19T08:25:45.966Z,4.70
2023-01-19T08:27:12.744Z,5.32
2023-01-19T08:28:39.125Z,5.70
2023-01-19T08:30:02.649Z,5.15
2023-01-19T08:31:27.757Z,5.18
2023-01-19T08:32:51.284Z,5.32
2023-01-19T08:34:14.856Z,4.55
2023-01-19T08:35:42.096Z,5.60
2023-01-19T08:37:05.561Z,5.13
2023-01-19T08:38:29.135Z,5.15
2023-01-19T08:39:57.003Z,4.97
2023-01-19T08:41:20.463Z,4.25
2023-01-19T08:42:43.968Z,4.72
2023-01-19T08:44:07.450Z,4.45
2023-01-19T08:45:31.115Z,4.70
2023-01-19T08:46:54.785Z,4.38
2023-01-19T08:48:19.979Z,3.90
2023-01-19T08:49:44.991Z,4.53
2023-01-19T08:51:08.474Z,3.65
2023-01-19T08:52:34.538Z,4.68
2023-01-19T08:53:58.011Z,4.70
2023-01-19T08:55:22.976Z,5.45
2023-01-19T08:56:46.465Z,4.75
2023-01-19T08:58:10.482Z,4.38
2023-01-19T08:59:33.889Z,4.60
2023-01-19T09:00:57.602Z,4.60
2023-01-19T09:02:21.137Z,4.53
2023-01-19T09:03:44.822Z,4.70
2023-01-19T09:05:09.385Z,4.45
2023-01-19T09:06:32.888Z,4.47
2023-01-19T09:07:56.462Z,4.88
2023-01-19T09:09:19.977Z,4.43
2023-01-19T09:10:48.980Z,4.70
2023-01-19T09:12:12.594Z,5.03
2023-01-19T09:13:36.047Z,4.20
2023-01-19T09:14:59.766Z,4.18
2023-01-19T09:16:23.480Z,5.40
2023-01-19T09:17:47.073Z,4.70
2023-01-19T09:19:10.491Z,4.65
2023-01-19T09:20:36.079Z,4.72
2023-01-19T09:22:00.452Z,3.97
2023-01-19T09:23:23.910Z,4.68
2023-01-19T09:24:47.368Z,5.00
2023-01-19T09:26:12.204Z,4.30
2023-01-19T09:27:35.855Z,4.45
2023-01-19T09:28:59.678Z,4.20
2023-01-19T09:30:23.289Z,3.97
2023-01-19T09:31:46.837Z,4.13
2023-01-19T09:33:12.241Z,3.85
2023-01-19T09:34:35.885Z,4.70
2023-01-19T09:35:59.305Z,4.68
2023-01-19T09:37:22.832Z,4.32
2023-01-19T09:38:46.360Z,4.60
2023-01-19T09:40:13.702Z,4.75
2023-01-19T09:41:39.673Z,4.40
2023-01-19T09:43:12.998Z,4.57
2023-01-19T09:44:37.540Z,4.45
2023-01-19T09:46:02.641Z,4.60
2023-01-19T09:47:29.403Z,4.88
2023-01-19T09:48:54.172Z,4.25
2023-01-19T09:50:22.570Z,4.43
2023-01-19T09:51:48.352Z,4.20
2023-01-19T09:53:17.294Z,4.13
2023-01-19T09:54:44.321Z,4.45
2023-01-19T09:56:12.254Z,4.78
2023-01-19T09:57:37.533Z,4.30
2023-01-19T09:59:01.962Z,4.90
2023-01-19T10:00:27.635Z,4.25
2023-01-19T10:02:07.185Z,4.50
2023-01-19T10:03:30.986Z,3.97
2023-01-19T10:05:00.516Z,4.20
2023-01-19T10:06:26.317Z,4.18
2023-01-19T10:07:59.231Z,5.18
2023-01-19T10:09:28.745Z,4.75
2023-01-19T10:10:55.284Z,4.78
2023-01-19T10:12:30.221Z,4.35
2023-01-19T10:13:55.146Z,3.97
2023-01-19T10:15:39.068Z,4.70
2023-01-19T10:17:13.375Z,4.40
2023-01-19T10:18:47.425Z,4.30
2023-01-19T10:20:16.311Z,4.10
2023-01-19T10:21:41.874Z,4.60
2023-01-19T10:23:07.082Z,4.05
2023-01-19T10:24:34.152Z,4.72
2023-01-19T10:25:58.371Z,4.43
2023-01-19T10:27:26.222Z,4.10
2023-01-19T10:28:51.847Z,4.78
2023-01-19T10:30:23.246Z,3.80
2023-01-19T10:31:48.182Z,4.63
2023-01-19T10:33:15.933Z,4.28
2023-01-19T10:34:42.359Z,4.38
2023-01-19T10:36:07.226Z,4.65
2023-01-19T10:37:33.572Z,4.13
2023-01-19T10:38:57.208Z,4.47
2023-01-19T10:40:34.866Z,4.93
2023-01-19T10:42:00.491Z,5.35
2023-01-19T10:43:41.785Z,4.15
2023-01-19T10:45:06.740Z,4.40
2023-01-19T10:46:36.390Z,5.03
2023-01-19T10:48:02.220Z,4.18
2023-01-19T10:49:28.460Z,4.07
2023-01-19T10:51:03.325Z,4.28
2023-01-19T10:52:30.975Z,4.18
2023-01-19T10:53:57.515Z,3.90
2023-01-19T10:55:30.141Z,4.10
2023-01-19T10:56:56.347Z,4.43
2023-01-19T10:58:30.691Z,5.70
2023-01-19T10:59:54.155Z,4.60
2023-01-19T11:01:22.692Z,4.43
2023-01-19T11:02:52.254Z,4.30
2023-01-19T11:04:26.910Z,3.95
2023-01-19T11:05:50.400Z,4.03
2023-01-19T11:07:20.913Z,4.55
2023-01-19T11:08:44.497Z,4.55
2023-01-19T11:10:22.539Z,4.38
2023-01-19T11:11:48.432Z,4.55
2023-01-19T11:13:15.830Z,4.20
2023-01-19T11:14:40.088Z,3.78
2023-01-19T11:16:07.695Z,4.70
2023-01-19T11:17:31.163Z,4.72
2023-01-19T11:18:57.260Z,5.18
2023-01-19T11:20:22.803Z,4.72
2023-01-19T11:21:46.235Z,4.88
2023-01-19T11:23:24.292Z,4.45
2023-01-19T11:24:47.707Z,4.25
2023-01-19T11:26:15.747Z,4.22
2023-01-19T11:27:39.538Z,4.30
2023-01-19T11:29:04.384Z,4.43
2023-01-19T11:30:28.485Z,4.20
2023-01-19T11:31:52.463Z,4.50
2023-01-19T11:33:26.137Z,5.07
2023-01-19T11:34:51.591Z,4.63
2023-01-19T11:36:18.763Z,4.43
2023-01-19T11:37:43.208Z,3.75
2023-01-19T11:39:23.529Z,4.18
2023-01-19T11:40:54.197Z,4.45
2023-01-19T11:42:18.159Z,5.47
2023-01-19T11:43:49.107Z,3.83
2023-01-19T11:45:15.784Z,4.45
2023-01-19T11:46:42.175Z,4.10
2023-01-19T11:48:07.643Z,4.60
2023-01-19T11:49:39.527Z,5.00
2023-01-19T11:51:08.460Z,3.67
2023-01-19T11:52:36.008Z,3.83
2023-01-19T11:53:59.479Z,4.70
2023-01-19T11:55:30.277Z,3.72
2023-01-19T11:56:53.964Z,4.40
2023-01-19T11:58:18.240Z,4.35
2023-01-19T11:59:42.859Z,5.05
2023-01-19T12:01:10.691Z,4.15
2023-01-19T12:02:42.659Z,4.28
2023-01-19T12:04:10.993Z,3.75
2023-01-19T12:05:36.047Z,5.07
2023-01-19T12:07:05.072Z,4.32
2023-01-19T12:08:31.798Z,5.35
2023-01-19T12:09:57.709Z,4.05
2023-01-19T12:11:24.217Z,3.67
2023-01-19T12:12:48.232Z,4.63
2023-01-19T12:14:18.255Z,4.20
2023-01-19T12:15:44.326Z,4.28
2023-01-19T12:17:09.773Z,4.88
2023-01-19T12:18:37.669Z,4.43
2023-01-19T12:20:07.106Z,4.60
2023-01-19T12:21:30.587Z,4.63
2023-01-19T12:23:02.580Z,4.78
2023-01-19T12:24:30.616Z,4.35
2023-01-19T12:26:03.180Z,4.22
2023-01-19T12:27:39.123Z,4.28
2023-01-19T12:29:07.104Z,4.47
2023-01-19T12:30:31.570Z,4.07
2023-01-19T12:32:20.178Z,4.18
2023-01-19T12:33:43.620Z,3.63
2023-01-19T12:35:09.598Z,4.07
2023-01-19T12:36:40.133Z,3.83
2023-01-19T12:38:39.406Z,3.97
2023-01-19T12:40:06.734Z,4.15
2023-01-19T12:41:32.614Z,4.43
2023-01-19T12:43:00.340Z,4.32
2023-01-19T12:44:30.689Z,4.38
2023-01-19T12:45:54.695Z,4.22
2023-01-19T12:47:24.153Z,4.00
2023-01-19T12:48:47.787Z,4.82
2023-01-19T12:50:16.615Z,4.72
2023-01-19T12:51:40.136Z,4.68
2023-01-19T12:53:08.337Z,4.53
2023-01-19T12:54:32.719Z,4.38
2023-01-19T12:56:02.459Z,4.47
2023-01-19T12:57:28.983Z,4.20
2023-01-19T12:58:52.496Z,4.75
2023-01-19T13:00:37.668Z,4.70
2023-01-19T13:02:37.444Z,3.78
2023-01-19T13:04:03.502Z,3.92
2023-01-19T13:05:51.696Z,4.38
2023-01-19T13:07:17.985Z,3.22
2023-01-19T13:09:02.508Z,4.40
2023-01-19T13:10:54.076Z,4.50
2023-01-19T13:12:27.568Z,4.80
2023-01-19T13:14:29.793Z,6.13
2023-01-19T13:15:55.685Z,5.30
2023-01-19T13:17:33.537Z,5.85
2023-01-19T13:18:58.583Z,5.78
2023-01-19T13:20:28.416Z,5.05
2023-01-19T13:21:51.087Z,5.70
2023-01-19T13:23:20.316Z,4.13
2023-01-19T13:25:07.461Z,5.47
2023-01-19T13:26:33.426Z,5.72
2023-01-19T13:27:56.211Z,4.90
2023-01-19T13:29:24.051Z,5.60
2023-01-19T13:30:58.124Z,5.25
2023-01-19T13:32:24.538Z,5.70
2023-01-19T13:33:50.797Z,5.53
2023-01-19T13:35:18.220Z,5.25
2023-01-19T13:36:46.099Z,5.32
2023-01-19T13:38:13.540Z,4.93
2023-01-19T13:39:39.016Z,5.25
2023-01-19T13:41:04.950Z,4.82
2023-01-19T13:42:31.850Z,5.47
2023-01-19T13:44:02.169Z,5.93
2023-01-19T13:45:33.451Z,5.50
2023-01-19T13:46:59.645Z,6.10
2023-01-19T13:48:25.298Z,5.10
2023-01-19T13:49:51.093Z,6.53
2023-01-19T13:51:19.446Z,5.70
2023-01-19T13:52:45.793Z,5.88
2023-01-19T13:54:16.510Z,5.20
2023-01-19T13:55:39.959Z,5.78
2023-01-19T13:57:04.889Z,5.28
2023-01-19T13:58:29.291Z,5.65
2023-01-19T14:00:08.387Z,6.18
2023-01-19T14:01:32.955Z,5.50
2023-01-19T14:02:59.860Z,4.82
2023-01-19T14:04:31.362Z,5.57
2023-01-19T14:05:55.678Z,4.63
2023-01-19T14:07:26.251Z,6.35
2023-01-19T14:09:07.627Z,5.53
2023-01-19T14:10:33.253Z,5.40
2023-01-19T14:12:13.044Z,6.20
2023-01-19T14:13:40.150Z,4.53
2023-01-19T14:15:05.242Z,7.05
2023-01-19T14:16:28.857Z,5.75
2023-01-19T14:18:11.448Z,6.45
2023-01-19T14:19:49.588Z,5.60
2023-01-19T14:21:14.434Z,5.80
2023-01-19T14:22:41.898Z,6.25
2023-01-19T14:24:09.049Z,6.55
2023-01-19T14:25:33.508Z,6.03
2023-01-19T14:27:11.962Z,5.63
2023-01-19T14:28:39.339Z,5.78
2023-01-19T14:30:20.020Z,5.65
2023-01-19T14:31:45.176Z,6.10
2023-01-19T14:33:29.431Z,6.53
2023-01-19T14:34:54.902Z,6.03
2023-01-19T14:36:30.144Z,6.20
2023-01-19T14:37:54.082Z,5.53
2023-01-19T14:39:24.146Z,6.03
2023-01-19T14:40:48.095Z,5.13
2023-01-19T14:42:23.802Z,6.10
2023-01-19T14:43:47.504Z,5.70
2023-01-19T14:45:17.600Z,6.28
2023-01-19T14:46:46.734Z,6.70
2023-01-19T14:48:18.083Z,5.72
2023-01-19T14:49:47.513Z,6.95
2023-01-19T14:51:17.563Z,6.38
2023-01-19T14:52:42.467Z,6.28
2023-01-19T14:54:06.562Z,6.30
2023-01-19T14:55:34.935Z,6.53
2023-01-19T14:56:58.338Z,6.22
2023-01-19T14:58:26.825Z,5.45
2023-01-19T14:59:50.371Z,6.22
2023-01-19T15:01:14.439Z,4.78
2023-01-19T15:02:37.961Z,6.45
2023-01-19T15:04:01.475Z,6.18
2023-01-19T15:05:25.195Z,6.45
2023-01-19T15:06:48.748Z,6.78
2023-01-19T15:08:13.573Z,6.85
2023-01-19T15:09:36.985Z,7.72
2023-01-19T15:11:01.280Z,6.53
2023-01-19T15:12:26.706Z,6.95
2023-01-19T15:13:52.073Z,7.13
2023-01-19T15:15:18.131Z,6.35
2023-01-19T15:16:41.935Z,7.22
2023-01-19T15:18:06.683Z,5.85
2023-01-19T15:19:30.110Z,6.45
2023-01-19T15:20:55.134Z,7.22
2023-01-19T15:22:18.538Z,6.32
2023-01-19T15:23:42.132Z,7.10
2023-01-19T15:25:06.487Z,6.30
2023-01-19T15:26:30.140Z,6.93
2023-01-19T15:27:53.881Z,7.28
2023-01-19T15:29:25.283Z,6.97
2023-01-19T15:30:48.788Z,6.25
2023-01-19T15:32:14.474Z,6.90
2023-01-19T15:33:37.984Z,6.88
2023-01-19T15:35:01.390Z,6.53
2023-01-19T15:36:25.596Z,6.20
2023-01-19T15:37:50.026Z,7.00
2023-01-19T15:39:13.436Z,6.00
2023-01-19T15:40:36.841Z,7.80
2023-01-19T15:42:01.394Z,6.68
2023-01-19T15:43:24.917Z,6.75
2023-01-19T15:44:49.706Z,6.78
2023-01-19T15:46:15.925Z,7.72
2023-01-19T15:47:39.363Z,7.35
2023-01-19T15:49:02.764Z,5.88
2023-01-19T15:50:26.603Z,6.72
2023-01-19T15:51:50.019Z,6.43
2023-01-19T15:53:15.494Z,6.20
2023-01-19T15:54:38.903Z,6.57
2023-01-19T15:56:02.276Z,6.25
2023-01-19T15:57:25.744Z,7.05
2023-01-19T15:58:49.399Z,7.45
2023-01-19T16:00:15.677Z,7.05
2023-01-19T16:01:39.233Z,6.97
2023-01-19T16:03:03.595Z,7.20
2023-01-19T16:04:27.059Z,6.97
2023-01-19T16:05:50.455Z,7.28
2023-01-19T16:07:13.871Z,6.25
2023-01-19T16:08:37.990Z,7.53
2023-01-19T16:10:01.611Z,6.65
2023-01-19T16:11:25.020Z,6.43
2023-01-19T16:12:48.737Z,7.60
2023-01-19T16:14:12.175Z,8.02
2023-01-19T16:15:37.867Z,6.75
2023-01-19T16:17:02.147Z,5.97
2023-01-19T16:18:25.615Z,6.32
2023-01-19T16:19:49.027Z,7.18
2023-01-19T16:21:12.771Z,6.95
2023-01-19T16:22:36.775Z,6.65
2023-01-19T16:24:00.324Z,6.95
2023-01-19T16:25:23.790Z,5.47
2023-01-19T16:26:47.224Z,7.05
2023-01-19T16:28:10.624Z,6.82
2023-01-19T16:29:34.075Z,6.72
2023-01-19T16:30:58.856Z,6.97
2023-01-19T16:32:22.277Z,7.30
2023-01-19T16:33:46.515Z,6.80
2023-01-19T16:35:10.334Z,7.05
2023-01-19T16:36:34.979Z,6.57
2023-01-19T16:37:58.476Z,6.40
2023-01-19T16:39:21.951Z,6.93
2023-01-19T16:40:46.015Z,6.90
2023-01-19T16:42:09.393Z,7.50
2023-01-19T16:43:32.759Z,6.70
2023-01-19T16:44:57.016Z,6.88
2023-01-19T16:46:24.358Z,5.95
2023-01-19T16:47:50.692Z,6.82
2023-01-19T16:49:16.558Z,6.70
2023-01-19T16:50:40.033Z,7.03
2023-01-19T16:52:03.852Z,5.78
2023-01-19T16:53:27.254Z,6.55
2023-01-19T16:54:54.522Z,6.40
2023-01-19T16:56:18.164Z,6.35
2023-01-19T16:57:41.569Z,7.13
2023-01-19T16:59:05.284Z,6.40
2023-01-19T17:00:29.058Z,6.03
2023-01-19T17:01:54.794Z,6.13
2023-01-19T17:03:18.288Z,6.35
2023-01-19T17:04:41.717Z,6.47
2023-01-19T17:06:05.339Z,6.20
2023-01-19T17:07:28.962Z,7.22
2023-01-19T17:08:56.108Z,6.40
2023-01-19T17:10:19.630Z,6.18
2023-01-19T17:11:43.530Z,6.82
2023-01-19T17:13:06.897Z,6.45
2023-01-19T17:14:30.502Z,6.70
2023-01-19T17:15:54.130Z,7.47
2023-01-19T17:17:21.875Z,5.85
2023-01-19T17:18:45.340Z,6.95
2023-01-19T17:20:10.242Z,6.22
2023-01-19T17:21:34.082Z,6.53
2023-01-19T17:22:56.502Z,6.72
2023-01-19T17:24:20.891Z,6.80
2023-01-19T17:25:44.300Z,6.53
2023-01-19T17:27:07.734Z,6.68
2023-01-19T17:28:31.393Z,5.63
2023-01-19T17:29:54.869Z,6.47
2023-01-19T17:31:19.720Z,6.75
2023-01-19T17:32:44.664Z,5.72
2023-01-19T17:34:09.593Z,5.97
2023-01-19T17:35:35.571Z,6.43
2023-01-19T17:37:02.892Z,7.30
2023-01-19T17:38:26.558Z,6.53
2023-01-19T17:39:49.985Z,6.18
2023-01-19T17:41:14.828Z,7.10
2023-01-19T17:42:41.535Z,7.68
2023-01-19T17:44:06.389Z,6.60
2023-01-19T17:45:29.833Z,6.20
2023-01-19T17:46:53.444Z,7.40
2023-01-19T17:48:19.046Z,6.55
2023-01-19T17:49:42.531Z,6.38
2023-01-19T17:51:07.676Z,6.03
2023-01-19T17:52:31.413Z,6.65
2023-01-19T17:53:55.363Z,6.47
2023-01-19T17:55:19.760Z,7.05
2023-01-19T17:56:43.189Z,6.45
2023-01-19T17:58:06.741Z,6.38
2023-01-19T17:59:30.200Z,6.78
2023-01-19T18:00:53.642Z,6.47
2023-01-19T18:02:17.325Z,6.18
2023-01-19T18:03:42.452Z,5.97
2023-01-19T18:05:06.383Z,6.72
2023-01-19T18:06:30.160Z,6.15
2023-01-19T18:07:53.570Z,6.03
2023-01-19T18:09:17.007Z,6.57
2023-01-19T18:10:40.489Z,6.72
2023-01-19T18:12:03.979Z,6.95
2023-01-19T18:13:27.830Z,6.70
2023-01-19T18:14:51.389Z,6.78
2023-01-19T18:16:16.805Z,6.45
2023-01-19T18:17:43.223Z,7.32
2023-01-19T18:19:08.055Z,6.63
2023-01-19T18:20:32.384Z,5.43
2023-01-19T18:21:56.644Z,6.50
2023-01-19T18:23:21.741Z,6.15
2023-01-19T18:24:45.671Z,7.05
2023-01-19T18:26:10.858Z,6.35
2023-01-19T18:27:34.307Z,6.10
2023-01-19T18:28:58.292Z,7.00
2023-01-19T18:30:22.401Z,6.60
2023-01-19T18:31:45.908Z,7.13
2023-01-19T18:33:09.388Z,7.22
2023-01-19T18:34:34.186Z,6.72
2023-01-19T18:35:57.709Z,6.43
2023-01-19T18:37:21.391Z,6.45
2023-01-19T18:38:45.205Z,6.80
2023-01-19T18:40:10.141Z,5.97
2023-01-19T18:41:34.114Z,6.45
2023-01-19T18:42:57.757Z,5.85
2023-01-19T18:44:23.742Z,7.05
2023-01-19T18:45:49.947Z,6.22
2023-01-19T18:47:13.413Z,6.85
2023-01-19T18:48:37.486Z,7.13
2023-01-19T18:50:02.276Z,6.97
2023-01-19T18:51:25.768Z,6.78
2023-01-19T18:52:51.288Z,7.90
2023-01-19T18:54:15.555Z,6.95
2023-01-19T18:55:38.987Z,7.38
2023-01-19T18:57:02.375Z,7.15
2023-01-19T18:58:28.529Z,7.35
2023-01-19T18:59:52.074Z,6.45
2023-01-19T19:01:23.241Z,5.88
2023-01-19T19:02:46.737Z,6.50
2023-01-19T19:04:12.035Z,7.10
2023-01-19T19:05:37.004Z,6.22
2023-01-19T19:07:00.497Z,6.63